createdAt,value
2022-12-09T00:01:51.998Z,97579.34
2022-12-09T00:04:19.703Z,97576.06
2022-12-09T00:06:47.177Z,97565.66
2022-12-09T00:09:15.180Z,97568.53
2022-12-09T00:11:42.316Z,97567.59
2022-12-09T00:14:09.394Z,97571.00
2022-12-09T00:16:36.714Z,97568.66
2022-12-09T00:19:03.952Z,97567.13
2022-12-09T00:21:32.282Z,97556.91
2022-12-09T00:23:59.722Z,97560.31
2022-12-09T00:26:27.006Z,97557.81
2022-12-09T00:28:54.162Z,97557.28
2022-12-09T00:31:21.681Z,97555.38
2022-12-09T00:33:48.760Z,97560.56
2022-12-09T00:36:16.060Z,97560.72
2022-12-09T00:38:43.209Z,97558.94
2022-12-09T00:41:10.291Z,97555.53
2022-12-09T00:43:37.521Z,97548.81
2022-12-09T00:46:04.769Z,97556.59
2022-12-09T00:48:34.359Z,97548.00
2022-12-09T00:51:01.505Z,97555.06
2022-12-09T00:53:28.584Z,97547.28
2022-12-09T00:55:55.825Z,97547.16
2022-12-09T00:58:22.981Z,97549.19
2022-12-09T01:00:50.134Z,97560.41
2022-12-09T01:03:17.569Z,97554.25
2022-12-09T01:05:44.943Z,97543.31
2022-12-09T01:08:12.353Z,97545.09
2022-12-09T01:10:39.780Z,97547.81
2022-12-09T01:13:06.896Z,97553.81
2022-12-09T01:15:34.230Z,97552.31
2022-12-09T01:18:01.369Z,97560.22
2022-12-09T01:20:28.522Z,97548.63
2022-12-09T01:22:55.605Z,97552.19
2022-12-09T01:25:22.667Z,97543.69
2022-12-09T01:27:49.807Z,97548.06
2022-12-09T01:30:17.251Z,97542.06
2022-12-09T01:32:44.741Z,97545.72
2022-12-09T01:35:11.880Z,97543.13
2022-12-09T01:37:38.986Z,97543.13
2022-12-09T01:40:06.593Z,97536.41
2022-12-09T01:42:33.976Z,97539.00
2022-12-09T01:45:01.073Z,97529.47
2022-12-09T01:47:28.501Z,97532.91
2022-12-09T01:49:56.218Z,97522.63
2022-12-09T01:52:23.682Z,97522.53
2022-12-09T01:54:50.821Z,97522.53
2022-12-09T01:57:18.053Z,97521.00
2022-12-09T01:59:45.409Z,97513.22
2022-12-09T02:02:12.825Z,97513.59
2022-12-09T02:07:58.735Z,97507.47
2022-12-09T02:10:25.825Z,97505.69
2022-12-09T02:12:53.041Z,97507.47
2022-12-09T02:15:20.157Z,97501.72
2022-12-09T02:17:47.319Z,97505.00
2022-12-09T02:20:14.566Z,97501.72
2022-12-09T02:22:41.641Z,97492.97
2022-12-09T02:25:09.370Z,97491.16
2022-12-09T02:27:36.513Z,97497.59
2022-12-09T02:30:04.137Z,97488.06
2022-12-09T02:32:34.307Z,97486.94
2022-12-09T02:35:01.459Z,97491.97
2022-12-09T02:37:28.585Z,97495.13
2022-12-09T02:39:55.699Z,97499.38
2022-12-09T02:42:22.894Z,97500.56
2022-12-09T02:44:50.073Z,97494.56
2022-12-09T02:47:17.417Z,97487.50
2022-12-09T02:49:44.801Z,97488.31
2022-12-09T02:52:11.933Z,97485.03
2022-12-09T02:54:39.079Z,97478.34
2022-12-09T02:57:06.395Z,97471.38
2022-12-09T02:59:33.753Z,97467.97
2022-12-09T03:02:01.813Z,97468.50
2022-12-09T03:04:29.817Z,97462.63
2022-12-09T03:06:57.238Z,97461.13
2022-12-09T03:09:24.440Z,97464.81
2022-12-09T03:11:51.956Z,97457.84
2022-12-09T03:14:19.103Z,97459.84
2022-12-09T03:16:46.215Z,97461.38
2022-12-09T03:19:13.403Z,97454.53
2022-12-09T03:21:40.707Z,97458.78
2022-12-09T03:24:07.907Z,97459.94
2022-12-09T03:26:35.131Z,97457.50
2022-12-09T03:29:02.506Z,97462.44
2022-12-09T03:31:29.985Z,97453.13
2022-12-09T03:33:57.890Z,97459.84
2022-12-09T03:36:25.069Z,97453.94
2022-12-09T03:38:52.157Z,97451.50
2022-12-09T03:41:19.239Z,97458.47
2022-12-09T03:43:47.751Z,97452.56
2022-12-09T03:46:15.236Z,97451.75
2022-12-09T03:48:42.751Z,97451.03
2022-12-09T03:51:09.908Z,97443.41
2022-12-09T03:53:37.338Z,97440.97
2022-12-09T03:56:04.492Z,97440.56
2022-12-09T03:58:31.624Z,97446.44
2022-12-09T04:00:59.107Z,97446.81
2022-12-09T04:03:26.640Z,97449.16
2022-12-09T04:05:53.858Z,97455.66
2022-12-09T04:08:21.343Z,97455.66
2022-12-09T04:10:48.582Z,97453.53
2022-12-09T04:13:15.695Z,97445.84
2022-12-09T04:15:43.016Z,97444.38
2022-12-09T04:18:10.642Z,97441.06
2022-12-09T04:20:37.778Z,97439.28
2022-12-09T04:23:04.834Z,97436.03
2022-12-09T04:25:32.046Z,97434.25
2022-12-09T04:27:59.156Z,97432.88
2022-12-09T04:30:26.451Z,97434.50
2022-12-09T04:32:53.691Z,97434.38
2022-12-09T04:35:21.086Z,97437.34
2022-12-09T04:37:48.530Z,97430.28
2022-12-09T04:40:21.331Z,97430.38
2022-12-09T04:42:50.761Z,97429.22
2022-12-09T04:45:18.012Z,97431.59
2022-12-09T04:47:45.228Z,97428.88
2022-12-09T04:50:13.093Z,97434.06
2022-12-09T04:52:40.953Z,97427.38
2022-12-09T04:55:08.365Z,97429.00
2022-12-09T04:57:35.655Z,97425.34
2022-12-09T05:00:03.064Z,97420.56
2022-12-09T05:02:30.232Z,97424.91
2022-12-09T05:04:57.689Z,97414.56
2022-12-09T05:07:25.413Z,97416.03
2022-12-09T05:09:53.140Z,97422.03
2022-12-09T05:12:20.480Z,97420.41
2022-12-09T05:14:47.992Z,97423.25
2022-12-09T05:17:15.331Z,97413.97
2022-12-09T05:19:43.154Z,97411.41
2022-12-09T05:22:10.629Z,97406.88
2022-12-09T05:24:37.776Z,97403.63
2022-12-09T05:27:04.910Z,97402.81
2022-12-09T05:29:32.122Z,97398.44
2022-12-09T05:31:59.582Z,97393.34
2022-12-09T05:34:26.802Z,97397.06
2022-12-09T05:36:54.799Z,97388.31
2022-12-09T05:39:22.132Z,97384.09
2022-12-09T05:41:49.572Z,97375.09
2022-12-09T05:44:17.065Z,97389.94
2022-12-09T05:46:44.486Z,97376.44
2022-12-09T05:49:11.973Z,97373.97
2022-12-09T05:51:39.184Z,97377.53
2022-12-09T05:54:06.512Z,97375.63
2022-12-09T05:56:33.932Z,97380.94
2022-12-09T05:59:01.513Z,97371.13
2022-12-09T06:01:29.371Z,97364.56
2022-12-09T06:03:57.034Z,97360.22
2022-12-09T06:06:26.820Z,97354.78
2022-12-09T06:08:54.944Z,97358.44
2022-12-09T06:11:22.371Z,97348.19
2022-12-09T06:13:50.521Z,97356.81
2022-12-09T06:16:19.608Z,97353.50
2022-12-09T06:18:47.491Z,97355.94
2022-12-09T06:21:14.693Z,97349.03
2022-12-09T06:23:42.193Z,97349.28
2022-12-09T06:26:09.427Z,97352.44
2022-12-09T06:28:36.652Z,97352.44
2022-12-09T06:31:04.267Z,97351.88
2022-12-09T06:34:00.406Z,97344.91
2022-12-09T06:36:19.043Z,97341.38
2022-12-09T06:38:46.138Z,97343.13
2022-12-09T06:41:13.624Z,97337.81
2022-12-09T06:43:41.305Z,97337.81
2022-12-09T06:46:08.870Z,97343.38
2022-12-09T06:48:36.448Z,97340.69
2022-12-09T06:51:03.891Z,97338.78
2022-12-09T06:53:31.721Z,97345.88
2022-12-09T06:55:59.006Z,97338.91
2022-12-09T06:58:26.143Z,97333.03
2022-12-09T07:00:53.366Z,97336.56
2022-12-09T07:03:20.973Z,97340.81
2022-12-09T07:05:49.166Z,97331.25
2022-12-09T07:08:16.784Z,97328.56
2022-12-09T07:10:48.145Z,97331.81
2022-12-09T07:13:18.925Z,97339.72
2022-12-09T07:15:46.194Z,97337.00
2022-12-09T07:18:13.707Z,97346.44
2022-12-09T07:20:40.939Z,97340.69
2022-12-09T07:23:08.247Z,97335.69
2022-12-09T07:25:35.528Z,97341.59
2022-12-09T07:28:03.073Z,97350.09
2022-12-09T07:30:30.249Z,97351.72
2022-12-09T07:32:58.163Z,97350.38
2022-12-09T07:35:26.012Z,97354.38
2022-12-09T07:37:55.391Z,97343.06
2022-12-09T07:40:22.798Z,97344.69
2022-12-09T07:42:53.642Z,97347.72
2022-12-09T07:45:23.326Z,97355.25
2022-12-09T07:47:50.790Z,97352.25
2022-12-09T07:50:18.457Z,97351.03
2022-12-09T07:52:45.793Z,97351.13
2022-12-09T07:55:13.325Z,97350.06
2022-12-09T07:57:41.324Z,97349.00
2022-12-09T08:00:08.755Z,97345.44
2022-12-09T08:02:36.059Z,97347.91
2022-12-09T08:05:03.428Z,97348.72
2022-12-09T08:07:31.149Z,97353.50
2022-12-09T08:09:58.761Z,97344.66
2022-12-09T08:12:26.144Z,97340.13
2022-12-09T08:14:53.575Z,97344.78
2022-12-09T08:17:22.077Z,97338.09
2022-12-09T08:19:50.030Z,97341.25
2022-12-09T08:22:17.279Z,97336.88
2022-12-09T08:24:44.820Z,97339.03
2022-12-09T08:27:12.108Z,97328.56
2022-12-09T08:29:40.138Z,97325.69
2022-12-09T08:32:07.592Z,97324.72
2022-12-09T08:34:34.898Z,97322.94
2022-12-09T08:37:02.701Z,97320.09
2022-12-09T08:39:30.420Z,97320.91
2022-12-09T08:41:57.659Z,97310.66
2022-12-09T08:44:24.798Z,97308.75
2022-12-09T08:46:52.154Z,97314.09
2022-12-09T08:49:20.296Z,97307.94
2022-12-09T08:51:47.704Z,97301.50
2022-12-09T08:54:15.227Z,97307.50
2022-12-09T08:56:42.753Z,97294.41
2022-12-09T08:59:10.378Z,97289.06
2022-12-09T09:01:37.702Z,97287.97
2022-12-09T09:04:05.422Z,97288.69
2022-12-09T09:06:33.371Z,97287.56
2022-12-09T09:09:01.103Z,97283.72
2022-12-09T09:11:28.707Z,97288.00
2022-12-09T09:13:56.198Z,97287.19
2022-12-09T09:16:23.773Z,97287.84
2022-12-09T09:18:51.691Z,97297.41
2022-12-09T09:21:18.977Z,97292.34
2022-12-09T09:23:46.227Z,97285.78
2022-12-09T09:26:13.749Z,97292.22
2022-12-09T09:28:41.241Z,97282.94
2022-12-09T09:31:08.583Z,97282.09
2022-12-09T09:33:36.305Z,97284.84
2022-12-09T09:36:09.651Z,97276.25
2022-12-09T09:38:37.581Z,97275.00
2022-12-09T09:41:05.072Z,97276.09
2022-12-09T09:43:32.257Z,97276.78
2022-12-09T09:45:59.510Z,97267.38
2022-12-09T09:48:26.782Z,97266.53
2022-12-09T09:50:54.376Z,97271.72
2022-12-09T09:53:21.514Z,97266.41
2022-12-09T09:55:50.362Z,97258.75
2022-12-09T09:58:17.958Z,97249.22
2022-12-09T10:00:45.377Z,97251.66
2022-12-09T10:03:13.050Z,97255.63
2022-12-09T10:05:40.560Z,97255.63
2022-12-09T10:08:08.417Z,97250.44
2022-12-09T10:10:36.132Z,97252.31
2022-12-09T10:13:09.404Z,97252.88
2022-12-09T10:15:40.180Z,97244.44
2022-12-09T10:18:08.726Z,97243.47
2022-12-09T10:20:36.102Z,97241.13
2022-12-09T10:23:04.129Z,97237.31
2022-12-09T10:25:31.922Z,97234.88
2022-12-09T10:27:59.663Z,97232.53
2022-12-09T10:30:32.171Z,97233.34
2022-12-09T10:33:03.876Z,97229.94
2022-12-09T10:35:32.956Z,97229.41
2022-12-09T10:38:00.887Z,97237.03
2022-12-09T10:40:28.368Z,97230.75
2022-12-09T10:43:14.510Z,97235.97
2022-12-09T10:46:15.790Z,97222.44
2022-12-09T10:48:32.765Z,97228.03
2022-12-09T10:51:00.910Z,97224.63
2022-12-09T10:53:28.125Z,97215.03
2022-12-09T10:55:55.521Z,97221.91
2022-12-09T10:58:23.082Z,97213.00
2022-12-09T11:00:50.488Z,97217.25
2022-12-09T11:03:17.719Z,97215.31
2022-12-09T11:05:45.039Z,97208.50
2022-12-09T11:08:12.574Z,97201.38
2022-12-09T11:10:39.994Z,97203.03
2022-12-09T11:13:07.445Z,97200.97
2022-12-09T11:15:35.380Z,97195.91
2022-12-09T11:18:03.246Z,97193.31
2022-12-09T11:20:30.764Z,97188.81
2022-12-09T11:22:58.440Z,97181.16
2022-12-09T11:25:27.232Z,97182.81
2022-12-09T11:27:54.613Z,97172.13
2022-12-09T11:30:22.471Z,97176.38
2022-12-09T11:32:51.109Z,97175.28
2022-12-09T11:35:18.933Z,97170.63
2022-12-09T11:37:46.164Z,97175.97
2022-12-09T11:40:13.326Z,97171.59
2022-12-09T11:42:40.435Z,97159.97
2022-12-09T11:45:07.555Z,97164.88
2022-12-09T11:47:57.291Z,97154.09
2022-12-09T11:50:22.076Z,97162.81
2022-12-09T11:52:49.190Z,97164.06
2022-12-09T11:55:16.302Z,97162.28
2022-12-09T11:57:43.415Z,97152.84
2022-12-09T12:00:10.480Z,97161.31
2022-12-09T12:02:37.571Z,97157.91
2022-12-09T12:05:04.676Z,97165.03
2022-12-09T12:07:31.763Z,97153.69
2022-12-09T12:09:58.948Z,97150.09
2022-12-09T12:12:26.021Z,97146.00
2022-12-09T12:14:53.074Z,97143.56
2022-12-09T12:17:20.232Z,97140.53
2022-12-09T12:19:47.298Z,97133.44
2022-12-09T12:22:14.413Z,97128.97
2022-12-09T12:24:41.475Z,97127.84
2022-12-09T12:27:08.539Z,97125.06
2022-12-09T12:29:35.670Z,97124.66
2022-12-09T12:32:02.851Z,97129.69
2022-12-09T12:34:37.417Z,97125.31
2022-12-09T12:37:06.413Z,97119.16
2022-12-09T12:39:33.506Z,97114.13
2022-12-09T12:42:00.570Z,97114.28
2022-12-09T12:44:46.444Z,97113.31
2022-12-09T12:47:13.534Z,97110.03
2022-12-09T12:49:40.608Z,97104.53
2022-12-09T12:52:12.716Z,97098.91
2022-12-09T12:54:48.191Z,97097.13
2022-12-09T12:57:15.242Z,97098.91
2022-12-09T12:59:42.335Z,97101.81
2022-12-09T13:02:09.459Z,97097.13
2022-12-09T13:04:36.593Z,97102.22
2022-12-09T13:07:03.742Z,97099.72
2022-12-09T13:09:31.227Z,97096.72
2022-12-09T13:11:58.313Z,97101.63
2022-12-09T13:14:25.427Z,97104.59
2022-12-09T13:16:52.602Z,97092.72
2022-12-09T13:19:19.764Z,97095.03
2022-12-09T13:21:46.902Z,97088.66
2022-12-09T13:24:17.945Z,97080.84
2022-12-09T13:26:45.015Z,97079.44
2022-12-09T13:29:12.107Z,97082.47
2022-12-09T13:31:39.228Z,97087.41
2022-12-09T13:34:06.282Z,97085.31
2022-12-09T13:36:36.569Z,97080.41
2022-12-09T13:39:03.955Z,97085.88
2022-12-09T13:41:31.032Z,97081.50
2022-12-09T13:43:58.111Z,97093.53
2022-12-09T13:46:25.343Z,97089.66
2022-12-09T13:48:52.529Z,97084.91
2022-12-09T13:51:19.722Z,97090.63
2022-12-09T13:53:46.968Z,97093.59
2022-12-09T13:56:14.110Z,97089.81
2022-12-09T13:58:41.222Z,97083.56
2022-12-09T14:01:08.318Z,97080.84
2022-12-09T14:03:35.495Z,97090.53
2022-12-09T14:06:02.626Z,97090.09
2022-12-09T14:08:29.751Z,97093.53
2022-12-09T14:10:56.924Z,97099.53
2022-12-09T14:13:24.036Z,97100.34
2022-12-09T14:15:51.175Z,97102.94
2022-12-09T14:18:18.240Z,97099.25
2022-12-09T14:20:45.290Z,97104.44
2022-12-09T14:23:12.513Z,97105.25
2022-12-09T14:25:39.587Z,97106.22
2022-12-09T14:28:06.655Z,97099.25
2022-12-09T14:30:33.746Z,97100.34
2022-12-09T14:33:00.833Z,97103.75
2022-12-09T14:35:27.962Z,97103.34
2022-12-09T14:37:55.088Z,97107.69
2022-12-09T14:40:22.256Z,97117.28
2022-12-09T14:42:49.459Z,97118.50
2022-12-09T14:45:16.555Z,97124.50
2022-12-09T14:47:43.661Z,97129.97
2022-12-09T14:50:11.305Z,97126.56
2022-12-09T14:52:38.575Z,97142.31
2022-12-09T14:55:06.162Z,97140.22
2022-12-09T14:57:33.758Z,97138.28
2022-12-09T15:00:00.895Z,97136.13
2022-12-09T15:02:30.053Z,97140.66
2022-12-09T15:04:57.434Z,97141.34
2022-12-09T15:07:27.421Z,97129.16
2022-12-09T15:09:54.502Z,97130.13
2022-12-09T15:12:21.582Z,97136.59
2022-12-09T15:14:48.650Z,97129.72
2022-12-09T15:17:15.711Z,97130.53
2022-12-09T15:22:30.353Z,97129.16
2022-12-09T15:24:57.426Z,97120.56
2022-12-09T15:27:24.509Z,97130.13
2022-12-09T15:29:51.789Z,97132.28
2022-12-09T15:32:18.918Z,97140.28
2022-12-09T15:34:46.058Z,97139.41
2022-12-09T15:37:13.252Z,97131.47
2022-12-09T15:39:40.326Z,97117.75
2022-12-09T15:42:07.423Z,97122.78
2022-12-09T15:44:34.594Z,97129.63
2022-12-09T15:47:04.353Z,97126.00
2022-12-09T15:49:34.018Z,97123.53
2022-12-09T15:52:01.112Z,97128.28
2022-12-09T15:54:28.416Z,97130.06
2022-12-09T15:56:55.612Z,97130.34
2022-12-09T15:59:22.719Z,97130.66
2022-12-09T16:01:50.416Z,97127.03
2022-12-09T16:04:17.591Z,97133.78
2022-12-09T16:06:44.709Z,97130.25
2022-12-09T16:09:11.778Z,97126.78
2022-12-09T16:11:38.945Z,97129.38
2022-12-09T16:14:06.024Z,97135.91
2022-12-09T16:16:33.108Z,97135.16
2022-12-09T16:19:00.231Z,97126.09
2022-12-09T16:21:27.371Z,97134.25
2022-12-09T16:23:54.481Z,97132.78
2022-12-09T16:26:21.719Z,97133.75
2022-12-09T16:28:48.795Z,97122.59
2022-12-09T16:31:17.026Z,97135.75
2022-12-09T16:33:44.153Z,97136.34
2022-12-09T16:36:11.229Z,97137.31
2022-12-09T16:38:38.388Z,97129.50
2022-12-09T16:41:05.508Z,97130.03
2022-12-09T16:43:32.928Z,97136.56
2022-12-09T16:46:00.129Z,97138.63
2022-12-09T16:48:27.382Z,97140.13
2022-12-09T16:50:54.560Z,97143.38
2022-12-09T16:53:21.758Z,97141.75
2022-12-09T16:55:48.867Z,97147.50
2022-12-09T16:58:15.925Z,97144.09
2022-12-09T17:00:43.057Z,97144.91
2022-12-09T17:03:10.244Z,97154.50
2022-12-09T17:05:37.404Z,97157.22
2022-12-09T17:08:04.545Z,97157.31
2022-12-09T17:10:31.671Z,97158.72
2022-12-09T17:12:58.759Z,97151.22
2022-12-09T17:15:25.988Z,97162.25
2022-12-09T17:17:53.190Z,97162.22
2022-12-09T17:20:20.254Z,97156.50
2022-12-09T17:22:47.373Z,97163.19
2022-12-09T17:25:14.688Z,97166.59
2022-12-09T17:27:41.803Z,97165.47
2022-12-09T17:30:09.025Z,97171.81
2022-12-09T17:32:37.648Z,97166.22
2022-12-09T17:35:10.596Z,97175.75
2022-12-09T17:37:39.579Z,97172.97
2022-12-09T17:40:06.852Z,97177.22
2022-12-09T17:42:34.285Z,97172.38
2022-12-09T17:45:01.467Z,97180.44
2022-12-09T17:47:28.644Z,97183.75
2022-12-09T17:49:55.725Z,97193.19
2022-12-09T17:52:22.784Z,97191.28
2022-12-09T17:54:49.898Z,97196.03
2022-12-09T17:57:16.988Z,97199.22
2022-12-09T17:59:44.133Z,97202.03
2022-12-09T18:02:11.374Z,97196.38
2022-12-09T18:04:38.518Z,97200.34
2022-12-09T18:07:05.581Z,97201.75
2022-12-09T18:09:32.725Z,97203.38
2022-12-09T18:11:59.849Z,97205.16
2022-12-09T18:14:26.913Z,97202.28
2022-12-09T18:16:54.208Z,97205.69
2022-12-09T18:19:23.390Z,97198.25
2022-12-09T18:21:50.558Z,97212.22
2022-12-09T18:24:18.298Z,97213.91
2022-12-09T18:26:45.389Z,97210.44
2022-12-09T18:29:12.471Z,97217.59
2022-12-09T18:31:39.810Z,97222.28
2022-12-09T18:34:06.903Z,97222.41
2022-12-09T18:36:33.971Z,97219.50
2022-12-09T18:39:01.116Z,97219.16
2022-12-09T18:41:29.151Z,97217.13
2022-12-09T18:43:56.266Z,97216.63
2022-12-09T18:46:25.743Z,97223.28
2022-12-09T18:48:53.212Z,97222.34
2022-12-09T18:51:20.317Z,97235.34
2022-12-09T18:53:47.367Z,97218.94
2022-12-09T18:56:14.469Z,97214.63
2022-12-09T18:59:05.452Z,97213.00
2022-12-09T19:01:29.728Z,97219.66
2022-12-09T19:03:56.946Z,97213.09
2022-12-09T19:06:24.105Z,97213.91
2022-12-09T19:08:54.283Z,97213.84
2022-12-09T19:11:21.574Z,97215.47
2022-12-09T19:13:48.638Z,97224.59
2022-12-09T19:16:15.881Z,97223.91
2022-12-09T19:18:43.357Z,97229.06
2022-12-09T19:21:10.472Z,97225.03
2022-12-09T19:23:37.624Z,97220.66
2022-12-09T19:26:05.748Z,97226.97
2022-12-09T19:28:32.987Z,97226.44
2022-12-09T19:31:00.193Z,97239.75
2022-12-09T19:33:27.366Z,97240.78
2022-12-09T19:35:54.462Z,97241.78
2022-12-09T19:38:21.664Z,97249.13
2022-12-09T19:40:48.974Z,97250.75
2022-12-09T19:43:16.047Z,97248.97
2022-12-09T19:45:43.136Z,97256.72
2022-12-09T19:48:10.239Z,97257.63
2022-12-09T19:50:37.302Z,97258.44
2022-12-09T19:53:04.378Z,97259.09
2022-12-09T19:55:31.446Z,97253.56
2022-12-09T19:57:58.510Z,97251.78
2022-12-09T20:00:25.628Z,97257.34
2022-12-09T20:02:52.767Z,97259.31
2022-12-09T20:05:20.025Z,97263.88
2022-12-09T20:07:47.152Z,97258.84
2022-12-09T20:10:14.281Z,97257.63
2022-12-09T20:12:41.409Z,97260.41
2022-12-09T20:15:08.509Z,97261.09
2022-12-09T20:17:35.590Z,97262.06
2022-12-09T20:20:02.830Z,97264.34
2022-12-09T20:22:30.131Z,97270.25
2022-12-09T20:24:57.193Z,97269.47
2022-12-09T20:27:25.267Z,97271.56
2022-12-09T20:29:52.423Z,97271.91
2022-12-09T20:32:19.530Z,97276.41
2022-12-09T20:34:49.438Z,97269.72
2022-12-09T20:37:16.775Z,97274.00
2022-12-09T20:39:44.187Z,97274.69
2022-12-09T20:42:11.359Z,97272.72
2022-12-09T20:44:38.447Z,97274.22
2022-12-09T20:47:05.531Z,97276.44
2022-12-09T20:49:32.674Z,97284.78
2022-12-09T20:51:59.806Z,97286.63
2022-12-09T20:54:27.437Z,97282.63
2022-12-09T20:56:54.806Z,97286.97
2022-12-09T20:59:21.909Z,97286.16
2022-12-09T21:01:48.999Z,97284.31
2022-12-09T21:04:16.214Z,97283.81
2022-12-09T21:06:43.529Z,97294.44
2022-12-09T21:09:10.817Z,97295.09
2022-12-09T21:11:37.890Z,97296.53
2022-12-09T21:14:05.002Z,97290.72
2022-12-09T21:16:32.191Z,97293.47
2022-12-09T21:18:59.501Z,97293.16
2022-12-09T21:21:26.584Z,97296.88
2022-12-09T21:23:54.628Z,97298.56
2022-12-09T21:26:21.716Z,97294.56
2022-12-09T21:28:48.807Z,97298.22
2022-12-09T21:31:16.001Z,97298.81
2022-12-09T21:33:45.657Z,97301.38
2022-12-09T21:36:12.730Z,97305.25
2022-12-09T21:38:39.825Z,97296.84
2022-12-09T21:41:06.950Z,97298.47
2022-12-09T21:43:34.015Z,97296.19
2022-12-09T21:46:01.366Z,97294.88
2022-12-09T21:48:28.938Z,97289.81
2022-12-09T21:50:56.080Z,97308.59
2022-12-09T21:53:23.157Z,97303.31
2022-12-09T21:55:50.234Z,97297.53
2022-12-09T21:58:17.352Z,97302.25
2022-12-09T22:00:44.435Z,97305.00
2022-12-09T22:03:11.502Z,97308.41
2022-12-09T22:05:38.597Z,97304.78
2022-12-09T22:08:05.721Z,97306.44
2022-12-09T22:10:32.923Z,97305.75
2022-12-09T22:13:00.082Z,97307.59
2022-12-09T22:15:27.324Z,97307.47
2022-12-09T22:17:54.431Z,97315.59
2022-12-09T22:23:08.880Z,97310.38
2022-12-09T22:25:36.004Z,97316.75
2022-12-09T22:28:03.074Z,97318.19
2022-12-09T22:30:30.201Z,97319.25
2022-12-09T22:32:57.310Z,97311.94
2022-12-09T22:35:24.397Z,97314.38
2022-12-09T22:37:51.478Z,97318.53
2022-12-09T22:40:19.452Z,97321.81
2022-12-09T22:42:46.983Z,97325.09
2022-12-09T22:45:14.054Z,97324.69
2022-12-09T22:47:41.159Z,97325.50
2022-12-09T22:50:08.357Z,97332.25
2022-12-09T22:52:35.570Z,97328.75
2022-12-09T22:55:02.647Z,97332.56
2022-12-09T22:57:29.728Z,97329.31
2022-12-09T22:59:56.797Z,97337.25
2022-12-09T23:02:24.004Z,97320.97
2022-12-09T23:04:51.226Z,97331.53
2022-12-09T23:07:18.283Z,97329.53
2022-12-09T23:09:45.419Z,97324.63
2022-12-09T23:12:12.521Z,97319.84
2022-12-09T23:14:39.591Z,97329.78
2022-12-09T23:17:06.722Z,97330.19
2022-12-09T23:19:34.013Z,97330.34
2022-12-09T23:22:01.287Z,97325.38
2022-12-09T23:24:28.362Z,97325.44
2022-12-09T23:26:55.899Z,97324.63
2022-12-09T23:29:23.038Z,97323.00
2022-12-09T23:31:50.133Z,97330.00
2022-12-09T23:34:17.289Z,97332.44
2022-12-09T23:36:44.399Z,97334.97
2022-12-09T23:39:11.514Z,97331.38
2022-12-09T23:41:38.855Z,97325.66
2022-12-09T23:44:05.913Z,97324.41
2022-12-09T23:46:33.037Z,97333.34
2022-12-09T23:49:03.227Z,97340.63
2022-12-09T23:51:30.296Z,97341.19
2022-12-09T23:53:57.348Z,97336.00
2022-12-09T23:56:24.405Z,97343.13
2022-12-09T23:58:51.483Z,97349.16
